Time;durP1;ratioP1;P1;durP2;ratioP2;P2;SDS_P1;SDS_P2;PMS_P1;PMS_P2;Temp;Humidity;BMP_temperature;BMP_pressure;BME280_temperature;BME280_humidity;BME280_pressure;Samples;Min_cycle;Max_cycle;Signal;HPM_P1;HPM_P2
2022/07/25 00:00:12;;;;;;;15.77;8.68;;;;;;;23.37;87.29;101007.44;5054837;28;20036;-52
2022/07/25 00:02:38;;;;;;;13.80;8.32;;;;;;;23.31;87.63;101005.66;5055296;28;20028;-52
2022/07/25 00:05:04;;;;;;;13.55;8.38;;;;;;;23.33;86.77;101000.78;5056523;28;20482;-52
2022/07/25 00:07:29;;;;;;;15.57;8.85;;;;;;;23.22;86.57;100994.31;5057365;28;20147;-50
2022/07/25 00:09:55;;;;;;;18.73;8.73;;;;;;;23.30;87.21;101000.44;5055734;28;20040;-49
2022/07/25 00:12:20;;;;;;;15.10;8.82;;;;;;;23.26;87.00;100992.75;5055202;28;20632;-50
2022/07/25 00:14:46;;;;;;;18.90;9.00;;;;;;;23.26;87.26;100990.03;5055203;28;20055;-51
2022/07/25 00:17:11;;;;;;;14.65;9.30;;;;;;;23.18;87.03;100981.41;5056004;28;20025;-50
2022/07/25 00:19:37;;;;;;;18.08;8.60;;;;;;;23.15;87.22;100993.63;5053638;28;20025;-50
2022/07/25 00:22:02;;;;;;;11.95;8.27;;;;;;;23.14;88.04;100980.25;5057435;28;20025;-51
2022/07/25 00:24:27;;;;;;;12.60;9.45;;;;;;;23.07;88.93;100991.28;5055034;28;20597;-52
2022/07/25 00:26:53;;;;;;;17.27;9.18;;;;;;;23.04;88.88;100981.66;5057010;28;20053;-53
2022/07/25 00:29:19;;;;;;;16.88;9.05;;;;;;;23.05;89.76;100974.34;5054394;28;20075;-52
2022/07/25 00:31:44;;;;;;;13.95;9.25;;;;;;;22.98;90.01;100973.63;5056918;28;20062;-51
2022/07/25 00:34:09;;;;;;;15.80;8.95;;;;;;;22.92;89.18;100976.22;5054621;28;20466;-51
2022/07/25 00:36:35;;;;;;;17.58;9.45;;;;;;;22.95;89.08;100965.97;5056652;28;20144;-53
2022/07/25 00:39:00;;;;;;;18.05;9.38;;;;;;;22.91;88.40;100965.59;5056132;28;20025;-52
2022/07/25 00:41:26;;;;;;;15.48;9.75;;;;;;;22.87;90.17;100957.06;5056104;28;20028;-51
2022/07/25 00:43:51;;;;;;;15.82;8.98;;;;;;;22.84;89.34;100965.72;5054924;28;20032;-51
2022/07/25 00:46:17;;;;;;;14.95;9.38;;;;;;;22.88;90.25;100960.63;5056287;28;20603;-52
2022/07/25 00:48:43;;;;;;;15.18;9.73;;;;;;;22.80;89.87;100952.84;5054083;28;20032;-52
2022/07/25 00:51:09;;;;;;;14.63;9.55;;;;;;;22.78;90.06;100946.81;5054776;28;20187;-51
2022/07/25 00:53:36;;;;;;;12.75;9.45;;;;;;;22.77;91.07;100950.59;5054072;28;20039;-52
2022/07/25 00:56:03;;;;;;;14.13;9.32;;;;;;;22.76;90.78;100946.19;5056271;28;20039;-52
2022/07/25 00:58:28;;;;;;;14.77;9.48;;;;;;;22.68;90.21;100929.16;5055374;28;20047;-52
2022/07/25 01:00:54;;;;;;;16.45;10.23;;;;;;;22.70;90.57;100934.38;5054980;28;20029;-51
2022/07/25 01:03:20;;;;;;;15.27;9.82;;;;;;;22.63;89.95;100931.78;5054965;28;20025;-52
2022/07/25 01:05:45;;;;;;;16.77;9.68;;;;;;;22.62;90.52;100923.84;5055431;28;20107;-53
2022/07/25 01:08:11;;;;;;;16.10;9.38;;;;;;;22.58;90.78;100923.50;5054872;28;20016;-51
2022/07/25 01:10:38;;;;;;;18.65;9.90;;;;;;;22.56;91.03;100924.84;5055935;28;20107;-52
2022/07/25 01:13:03;;;;;;;15.43;9.88;;;;;;;22.59;91.32;100925.19;5055770;28;20246;-51
2022/07/25 01:15:29;;;;;;;23.25;10.32;;;;;;;22.57;91.21;100913.69;5054677;28;20536;-52
2022/07/25 01:17:55;;;;;;;13.48;9.77;;;;;;;22.56;90.95;100916.66;5055576;28;20017;-51
2022/07/25 01:20:25;;;;;;;16.00;10.43;;;;;;;22.52;91.42;100914.41;5054019;28;20205;-51
2022/07/25 01:22:52;;;;;;;17.80;10.07;;;;;;;22.47;90.31;100903.41;5054226;28;20028;-52
2022/07/25 01:25:18;;;;;;;17.52;10.18;;;;;;;22.42;90.48;100906.03;5055717;28;20096;-52
2022/07/25 01:27:44;;;;;;;21.38;10.25;;;;;;;22.37;90.30;100910.50;5055763;28;20627;-52
2022/07/25 01:30:13;;;;;;;14.45;10.68;;;;;;;22.34;90.22;100906.41;5050638;28;20551;-52
2022/07/25 01:32:40;;;;;;;19.98;10.43;;;;;;;22.38;90.08;100901.28;5054794;28;20025;-52
2022/07/25 01:35:06;;;;;;;16.98;10.18;;;;;;;22.35;89.85;100906.16;5054375;28;20024;-50
2022/07/25 01:37:32;;;;;;;17.67;10.52;;;;;;;22.36;89.95;100893.38;5055087;28;20350;-52
2022/07/25 01:39:57;;;;;;;17.15;10.18;;;;;;;22.40;89.72;100899.16;5054350;28;20394;-52
2022/07/25 01:42:23;;;;;;;22.00;10.05;;;;;;;22.37;89.46;100891.47;5054626;28;20546;-51
2022/07/25 01:44:48;;;;;;;16.98;10.40;;;;;;;22.32;89.50;100884.03;5053521;28;20031;-52
2022/07/25 01:47:14;;;;;;;16.88;10.90;;;;;;;22.30;89.56;100878.84;5055079;28;20035;-52
2022/07/25 01:49:39;;;;;;;19.17;10.70;;;;;;;22.29;89.55;100881.78;5053718;28;20032;-52
2022/07/25 01:52:05;;;;;;;16.10;10.38;;;;;;;22.29;89.78;100881.78;5054397;28;20042;-52
2022/07/25 01:54:31;;;;;;;16.38;10.43;;;;;;;22.30;89.00;100878.84;5054132;28;20022;-51
2022/07/25 01:56:56;;;;;;;16.60;11.18;;;;;;;22.29;88.99;100870.91;5054919;28;20463;-49
2022/07/25 01:59:21;;;;;;;19.42;10.95;;;;;;;22.29;89.98;100865.47;5052970;28;20090;-51
2022/07/25 02:01:47;;;;;;;24.98;10.40;;;;;;;22.33;90.54;100866.63;5055402;28;20099;-52
2022/07/25 02:04:12;;;;;;;20.73;11.05;;;;;;;22.30;90.53;100859.78;5053258;28;20028;-52
2022/07/25 02:06:40;;;;;;;18.02;11.35;;;;;;;22.30;89.56;100862.50;5054302;28;20558;-51
2022/07/25 02:09:06;;;;;;;19.58;11.57;;;;;;;22.28;88.69;100858.34;5053002;28;20020;-52
2022/07/25 02:11:32;;;;;;;18.77;10.93;;;;;;;22.25;89.40;100856.06;5055793;28;20078;-51
2022/07/25 02:13:57;;;;;;;16.27;10.30;;;;;;;22.25;89.77;100859.66;5052618;28;20154;-52
2022/07/25 02:16:22;;;;;;;19.25;11.15;;;;;;;22.22;89.07;100865.56;5054760;28;20111;-52
2022/07/25 02:18:48;;;;;;;20.25;11.15;;;;;;;22.19;90.49;100855.16;5050236;28;20025;-52
2022/07/25 02:21:13;;;;;;;21.02;10.85;;;;;;;22.17;88.99;100860.81;5053142;28;20128;-52
2022/07/25 02:23:39;;;;;;;18.80;11.32;;;;;;;22.19;90.47;100852.44;5053610;28;20577;-53
2022/07/25 02:26:04;;;;;;;19.55;10.70;;;;;;;22.14;90.34;100852.31;5054215;28;20667;-54
2022/07/25 02:28:30;;;;;;;18.50;11.43;;;;;;;22.11;88.89;100852.78;5054379;28;20033;-53
2022/07/25 02:30:56;;;;;;;18.05;11.38;;;;;;;22.06;89.01;100849.94;5053480;28;20024;-51
2022/07/25 02:33:21;;;;;;;17.77;10.90;;;;;;;21.98;89.36;100845.72;5054304;28;20094;-53
2022/07/25 02:35:46;;;;;;;19.77;11.00;;;;;;;21.96;90.18;100842.38;5053811;28;20028;-51
2022/07/25 02:38:18;;;;;;;16.30;10.40;;;;;;;21.97;89.51;100828.56;5051476;28;20034;-51
2022/07/25 02:40:46;;;;;;;16.98;11.05;;;;;;;21.98;90.61;100832.13;5054333;28;20220;-52
2022/07/25 02:43:12;;;;;;;18.00;11.10;;;;;;;21.96;91.19;100826.91;5054110;28;20550;-53
2022/07/25 02:45:37;;;;;;;15.75;10.75;;;;;;;21.94;91.01;100831.75;5052461;28;20169;-53
2022/07/25 02:48:02;;;;;;;17.05;10.70;;;;;;;21.94;90.77;100826.31;5055162;28;20033;-53
2022/07/25 02:50:29;;;;;;;19.70;11.10;;;;;;;21.89;91.09;100818.03;5053097;28;20016;-52
2022/07/25 02:52:54;;;;;;;18.02;11.45;;;;;;;21.89;90.33;100819.94;5048569;28;20082;-52
2022/07/25 02:55:19;;;;;;;23.98;10.43;;;;;;;21.87;91.40;100820.16;5053835;28;20573;-52
2022/07/25 02:57:45;;;;;;;15.27;10.48;;;;;;;21.84;90.25;100820.63;5055042;28;20154;-53
2022/07/25 03:00:11;;;;;;;17.52;10.82;;;;;;;21.80;89.67;100828.44;5052313;28;20067;-52
2022/07/25 03:02:36;;;;;;;15.80;10.05;;;;;;;21.76;89.59;100827.25;5054343;28;20443;-51
2022/07/25 03:05:05;;;;;;;17.50;11.02;;;;;;;21.77;90.59;100825.38;5054662;28;20020;-53
2022/07/25 03:07:30;;;;;;;21.15;10.65;;;;;;;21.74;89.80;100823.13;5051695;28;20016;-51
2022/07/25 03:09:55;;;;;;;17.10;10.27;;;;;;;21.71;89.94;100820.91;5052530;28;20470;-53
2022/07/25 03:12:21;;;;;;;25.17;11.63;;;;;;;21.66;93.04;100807.19;5051936;28;20036;-53
2022/07/25 03:14:47;;;;;;;28.38;11.38;;;;;;;21.59;94.49;100802.69;5052946;28;20207;-52
2022/07/25 03:17:12;;;;;;;29.00;11.13;;;;;;;21.59;93.51;100799.97;5054320;28;20454;-52
2022/07/25 03:19:37;;;;;;;36.55;11.10;;;;;;;21.50;94.22;100797.81;5057842;28;20465;-52
2022/07/25 03:22:02;;;;;;;27.88;10.98;;;;;;;21.52;94.56;100801.13;5057003;28;20044;-51
2022/07/25 03:24:28;;;;;;;24.52;10.65;;;;;;;21.45;93.59;100795.75;5056359;28;20475;-52
2022/07/25 03:26:54;;;;;;;20.73;10.40;;;;;;;21.42;93.96;100801.69;5057890;28;20028;-50
2022/07/25 03:29:19;;;;;;;17.77;10.10;;;;;;;21.35;92.03;100801.81;5055713;28;20047;-52
2022/07/25 03:31:44;;;;;;;19.00;11.27;;;;;;;21.32;92.52;100802.25;5058004;28;20027;-51
2022/07/25 03:34:10;;;;;;;35.05;11.45;;;;;;;21.36;94.04;100811.59;5056525;28;20032;-53
2022/07/25 03:36:35;;;;;;;20.27;10.80;;;;;;;21.36;93.63;100810.78;5057990;28;20431;-52
2022/07/25 03:39:01;;;;;;;23.75;11.32;;;;;;;21.31;92.60;100803.31;5053832;28;20035;-53
2022/07/25 03:41:26;;;;;;;19.75;11.60;;;;;;;21.24;92.39;100808.03;5057107;28;20099;-53
2022/07/25 03:43:51;;;;;;;19.13;11.27;;;;;;;21.26;96.80;100805.09;5055943;28;20120;-53
2022/07/25 03:46:16;;;;;;;17.95;11.38;;;;;;;21.19;95.33;100799.75;5057561;28;20059;-53
2022/07/25 03:48:42;;;;;;;23.10;11.75;;;;;;;21.22;96.08;100802.00;5057173;28;20533;-51
2022/07/25 03:51:07;;;;;;;26.92;11.90;;;;;;;21.26;97.02;100802.38;5057230;28;20618;-52
2022/07/25 03:54:00;;;;;;;18.98;10.90;;;;;;;21.19;93.53;100794.31;5056371;28;20070;-51
2022/07/25 03:56:18;;;;;;;17.48;10.57;;;;;;;21.22;98.34;100791.16;5056686;28;20063;-52
2022/07/25 03:58:43;;;;;;;16.40;11.02;;;;;;;21.17;95.10;100786.41;5055806;28;20675;-52
2022/07/25 04:01:09;;;;;;;17.67;10.80;;;;;;;21.22;96.29;100780.28;5056113;28;20024;-51
2022/07/25 04:03:35;;;;;;;14.73;10.98;;;;;;;21.24;98.06;100781.69;5056813;28;20043;-52
2022/07/25 04:06:00;;;;;;;16.35;10.73;;;;;;;21.26;97.53;100775.19;5056436;28;20028;-51
2022/07/25 04:08:25;;;;;;;18.90;10.65;;;;;;;21.26;95.45;100773.31;5055813;28;20356;-53
2022/07/25 04:10:50;;;;;;;17.30;10.52;;;;;;;21.26;91.56;100778.75;5056746;28;20154;-52
2022/07/25 04:13:16;;;;;;;14.52;9.38;;;;;;;21.24;91.32;100780.88;5056640;28;20094;-51
2022/07/25 04:15:41;;;;;;;17.20;10.25;;;;;;;21.20;90.57;100772.38;5055553;28;20153;-51
2022/07/25 04:18:06;;;;;;;17.15;10.18;;;;;;;21.18;91.52;100770.94;5056539;28;20027;-52
2022/07/25 04:20:32;;;;;;;13.60;9.20;;;;;;;21.20;90.69;100772.38;5051964;28;20151;-52
2022/07/25 04:22:57;;;;;;;15.98;9.32;;;;;;;21.19;90.75;100770.69;5055130;28;20016;-52
2022/07/25 04:25:22;;;;;;;19.20;9.35;;;;;;;21.22;89.52;100767.50;5055887;28;20028;-53
2022/07/25 04:27:47;;;;;;;15.48;9.55;;;;;;;21.25;88.86;100771.66;5057379;28;20460;-52
2022/07/25 04:30:13;;;;;;;15.98;9.15;;;;;;;21.28;88.59;100776.59;5053100;28;20020;-52
2022/07/25 04:32:38;;;;;;;16.65;9.68;;;;;;;21.29;88.30;100780.19;5056428;28;20032;-52
2022/07/25 04:35:04;;;;;;;18.13;9.45;;;;;;;21.27;88.48;100776.88;5054203;28;20028;-52
2022/07/25 04:37:29;;;;;;;14.73;8.60;;;;;;;21.25;89.35;100785.25;5055876;28;20016;-49
2022/07/25 04:39:54;;;;;;;13.60;9.45;;;;;;;21.20;89.50;100780.50;5055442;28;20031;-50
2022/07/25 04:42:20;;;;;;;15.25;9.15;;;;;;;21.19;89.17;100773.41;5055382;28;20035;-51
2022/07/25 04:44:45;;;;;;;11.25;8.75;;;;;;;21.23;88.46;100773.78;5054425;28;20059;-49
2022/07/25 04:47:10;;;;;;;14.25;9.32;;;;;;;21.29;87.81;100780.19;5056306;28;20482;-50
2022/07/25 04:49:36;;;;;;;13.52;8.77;;;;;;;21.34;87.15;100783.84;5055788;28;20025;-49
2022/07/25 04:52:01;;;;;;;13.25;8.80;;;;;;;21.37;87.11;100777.94;5050673;28;20097;-50
2022/07/25 04:54:26;;;;;;;15.20;9.00;;;;;;;21.36;87.76;100770.03;5055401;28;20519;-49
2022/07/25 04:56:52;;;;;;;14.13;8.48;;;;;;;21.38;87.49;100770.59;5055501;28;20020;-51
2022/07/25 04:59:17;;;;;;;16.65;8.98;;;;;;;21.40;87.22;100765.75;5053901;28;20017;-50
2022/07/25 05:01:42;;;;;;;14.85;8.60;;;;;;;21.42;87.35;100769.91;5056031;28;20549;-51
2022/07/25 05:04:07;;;;;;;18.42;9.00;;;;;;;21.39;87.75;100761.41;5055653;28;20024;-51
2022/07/25 05:06:33;;;;;;;12.25;8.65;;;;;;;21.39;87.96;100753.25;5056271;28;20028;-51
2022/07/25 05:08:58;;;;;;;17.42;8.93;;;;;;;21.42;87.61;100767.19;5055046;28;20030;-52
2022/07/25 05:11:23;;;;;;;18.70;8.90;;;;;;;21.45;88.19;100773.22;5055598;28;20196;-49
2022/07/25 05:13:48;;;;;;;16.90;9.07;;;;;;;21.47;87.77;100773.81;5053212;28;20712;-50
2022/07/25 05:16:14;;;;;;;18.52;9.23;;;;;;;21.49;88.48;100775.25;5055418;28;20029;-51
2022/07/25 05:18:39;;;;;;;19.33;9.43;;;;;;;21.53;89.49;100768.28;5055481;28;20494;-49
2022/07/25 05:21:08;;;;;;;15.60;9.30;;;;;;;21.52;89.01;100772.06;5055947;28;20487;-50
2022/07/25 05:23:33;;;;;;;14.73;9.32;;;;;;;21.48;89.58;100768.16;5054452;28;20032;-52
2022/07/25 05:25:58;;;;;;;18.27;9.75;;;;;;;21.51;89.48;100764.97;5056096;28;20024;-50
2022/07/25 05:28:24;;;;;;;15.88;9.75;;;;;;;21.51;89.43;100767.69;5055237;28;20031;-51
2022/07/25 05:30:49;;;;;;;16.30;9.43;;;;;;;21.48;89.28;100765.44;5039467;28;20025;-51
2022/07/25 05:33:14;;;;;;;17.75;10.55;;;;;;;21.49;89.29;100764.38;5054786;28;20024;-51
2022/07/25 05:35:39;;;;;;;17.15;9.95;;;;;;;21.50;89.69;100762.50;5054829;28;20308;-50
2022/07/25 05:38:05;;;;;;;18.98;10.52;;;;;;;21.50;90.74;100766.03;5054173;28;20034;-51
2022/07/25 05:40:30;;;;;;;18.25;10.63;;;;;;;21.51;90.78;100773.13;5055101;28;20403;-50
2022/07/25 05:42:55;;;;;;;18.90;11.23;;;;;;;21.53;90.89;100784.59;5054875;28;20013;-47
2022/07/25 05:45:21;;;;;;;23.60;11.98;;;;;;;21.55;92.05;100773.47;5053507;28;20024;-50
2022/07/25 05:47:46;;;;;;;22.38;11.35;;;;;;;21.54;91.59;100772.66;5053625;28;20116;-51
2022/07/25 05:50:12;;;;;;;20.75;11.57;;;;;;;21.53;91.32;100772.91;5052709;28;20028;-49
2022/07/25 05:52:37;;;;;;;18.25;11.68;;;;;;;21.58;91.84;100771.13;5054618;28;20046;-51
2022/07/25 05:55:02;;;;;;;20.45;11.50;;;;;;;21.65;91.88;100772.91;5053154;28;20499;-50
2022/07/25 05:57:28;;;;;;;27.50;11.55;;;;;;;21.72;92.66;100779.84;5055069;28;20052;-51
2022/07/25 05:59:53;;;;;;;19.75;11.60;;;;;;;21.76;90.70;100783.78;5053220;28;20598;-48
2022/07/25 06:02:18;;;;;;;26.95;12.68;;;;;;;21.76;90.70;100789.22;5054643;28;20021;-50
2022/07/25 06:04:43;;;;;;;40.80;13.70;;;;;;;21.75;91.40;100790.25;5054811;28;20081;-52
2022/07/25 06:07:09;;;;;;;29.42;12.55;;;;;;;21.81;91.84;100799.38;5052691;28;20335;-49
2022/07/25 06:09:34;;;;;;;27.88;11.73;;;;;;;21.78;90.76;100794.41;5054386;28;20020;-52
2022/07/25 06:11:59;;;;;;;22.20;12.15;;;;;;;21.80;91.05;100805.88;5055012;28;20087;-50
2022/07/25 06:14:25;;;;;;;21.13;11.30;;;;;;;21.86;90.69;100807.66;5052651;28;20470;-51
2022/07/25 06:16:50;;;;;;;21.27;10.85;;;;;;;21.97;89.94;100806.78;5053422;28;20021;-51
2022/07/25 06:19:16;;;;;;;27.50;11.70;;;;;;;22.00;89.97;100797.34;5049175;28;20111;-50
2022/07/25 06:21:41;;;;;;;23.58;11.27;;;;;;;22.01;90.42;100796.25;5053473;28;20103;-51
2022/07/25 06:24:08;;;;;;;21.88;11.55;;;;;;;22.04;89.51;100792.25;5052741;28;20124;-49
2022/07/25 06:26:33;;;;;;;20.20;10.93;;;;;;;22.05;89.29;100799.34;5055364;28;20047;-51
2022/07/25 06:28:58;;;;;;;19.52;10.20;;;;;;;22.02;88.71;100803.38;5053327;28;20662;-50
2022/07/25 06:31:24;;;;;;;23.05;11.20;;;;;;;22.03;88.91;100805.03;5054595;28;20388;-48
2022/07/25 06:33:49;;;;;;;14.52;9.85;;;;;;;21.96;88.99;100807.88;5054163;28;20024;-51
2022/07/25 06:36:15;;;;;;;17.20;10.15;;;;;;;21.95;90.60;100806.22;5054241;28;20021;-51
2022/07/25 06:38:40;;;;;;;24.42;10.35;;;;;;;21.96;89.54;100812.47;5053377;28;20036;-50
2022/07/25 06:41:05;;;;;;;22.13;10.68;;;;;;;22.02;89.28;100808.00;5053278;28;20031;-51
2022/07/25 06:43:30;;;;;;;19.73;10.43;;;;;;;22.15;89.47;100807.75;5054201;28;20433;-50
2022/07/25 06:45:56;;;;;;;22.80;10.30;;;;;;;22.23;89.45;100807.34;5054039;28;20034;-52
2022/07/25 06:48:23;;;;;;;18.80;9.10;;;;;;;22.30;87.45;100797.22;5054116;28;20086;-52
2022/07/25 06:50:49;;;;;;;28.38;9.25;;;;;;;22.33;87.59;100799.44;5052118;28;20414;-50
2022/07/25 06:53:14;;;;;;;26.48;9.40;;;;;;;22.31;87.71;100807.00;5051795;28;20092;-51
2022/07/25 06:55:40;;;;;;;21.75;8.52;;;;;;;22.30;87.56;100809.97;5057935;28;20127;-50
2022/07/25 06:58:05;;;;;;;20.42;8.85;;;;;;;22.34;87.87;100806.53;5057296;28;20048;-50
2022/07/25 07:00:30;;;;;;;26.42;8.18;;;;;;;22.31;86.80;100801.56;5057246;28;20428;-50
2022/07/25 07:03:00;;;;;;;23.52;8.43;;;;;;;22.30;87.43;100807.25;5058946;28;20359;-50
2022/07/25 07:05:28;;;;;;;14.00;7.53;;;;;;;22.35;86.82;100797.31;5057609;28;20284;-51
2022/07/25 07:07:53;;;;;;;32.50;7.70;;;;;;;22.45;86.48;100806.75;5055995;28;20255;-51
2022/07/25 07:10:20;;;;;;;18.88;7.13;;;;;;;22.47;86.44;100801.88;5055670;28;20028;-50
2022/07/25 07:12:46;;;;;;;13.65;6.78;;;;;;;22.54;86.08;100802.59;5057377;28;20464;-50
2022/07/25 07:15:12;;;;;;;16.27;6.60;;;;;;;22.63;85.44;100805.75;5056056;28;20855;-49
2022/07/25 07:17:38;;;;;;;12.98;5.80;;;;;;;22.77;85.70;100809.00;5056716;28;20088;-51
2022/07/25 07:20:04;;;;;;;14.30;5.82;;;;;;;22.90;84.77;100806.81;5057284;28;20028;-51
2022/07/25 07:22:29;;;;;;;16.05;5.65;;;;;;;23.06;83.87;100809.84;5057444;28;20110;-50
2022/07/25 07:24:55;;;;;;;12.45;5.18;;;;;;;23.05;83.67;100803.53;5057997;28;20052;-50
2022/07/25 07:27:22;;;;;;;11.48;5.38;;;;;;;23.08;84.05;100803.09;5057069;28;20142;-51
2022/07/25 07:29:48;;;;;;;14.43;4.85;;;;;;;23.12;84.37;100799.88;5055551;28;20020;-49
2022/07/25 07:32:13;;;;;;;14.05;4.75;;;;;;;23.18;84.25;100801.59;5057757;28;20017;-51
2022/07/25 07:34:38;;;;;;;10.52;4.35;;;;;;;23.13;84.88;100801.50;5057190;28;20119;-47
2022/07/25 07:37:03;;;;;;;9.48;4.18;;;;;;;23.05;83.67;100808.16;5056853;28;20051;-50
2022/07/25 07:39:29;;;;;;;8.35;3.35;;;;;;;23.07;83.96;100797.88;5057802;28;20082;-52
2022/07/25 07:41:54;;;;;;;7.10;3.38;;;;;;;23.13;83.75;100804.22;5057459;28;20467;-51
2022/07/25 07:44:19;;;;;;;10.70;3.80;;;;;;;23.16;84.19;100811.91;5043971;28;20037;-51
2022/07/25 07:46:45;;;;;;;11.50;3.47;;;;;;;23.19;85.02;100812.25;5057518;28;20020;-52
2022/07/25 07:49:10;;;;;;;9.48;3.22;;;;;;;23.22;84.00;100808.22;5056644;28;20035;-50
2022/07/25 07:51:35;;;;;;;8.85;3.30;;;;;;;23.20;84.28;100813.91;5056855;28;20024;-51
2022/07/25 07:56:44;;;;;;;10.27;3.08;;;;;;;23.45;85.41;100813.50;5057167;28;20035;-52
2022/07/25 07:59:10;;;;;;;8.68;3.20;;;;;;;23.72;85.21;100823.72;5054482;28;20471;-49
2022/07/25 08:01:35;;;;;;;9.98;2.40;;;;;;;23.74;83.73;100813.38;5056874;28;20239;-50
2022/07/25 08:04:01;;;;;;;10.32;2.53;;;;;;;23.87;83.79;100823.16;5056989;28;20166;-49
2022/07/25 08:06:26;;;;;;;11.10;2.38;;;;;;;23.87;85.15;100831.34;5055995;28;20028;-48
2022/07/25 08:08:52;;;;;;;8.30;2.30;;;;;;;24.00;85.84;100824.72;5056324;28;20071;-50
2022/07/25 08:11:17;;;;;;;11.30;2.20;;;;;;;24.05;85.41;100818.50;5057351;28;20024;-52
2022/07/25 08:13:42;;;;;;;14.00;2.17;;;;;;;23.93;86.11;100826.78;5054973;28;20055;-51
2022/07/25 08:16:10;;;;;;;8.82;2.10;;;;;;;23.95;86.69;100816.47;5055970;28;20420;-50
2022/07/25 08:18:36;;;;;;;6.65;1.88;;;;;;;23.80;87.73;100825.22;5053631;28;20025;-50
2022/07/25 08:21:04;;;;;;;12.50;1.83;;;;;;;23.73;88.15;100824.56;5055473;28;20375;-52
2022/07/25 08:23:31;;;;;;;9.77;1.85;;;;;;;23.90;86.56;100827.31;5056084;28;20028;-50
2022/07/25 08:25:58;;;;;;;10.93;1.80;;;;;;;24.07;86.58;100822.63;5057080;28;20020;-47
2022/07/25 08:28:23;;;;;;;11.10;1.95;;;;;;;24.23;86.65;100820.94;5056321;28;20028;-50
2022/07/25 08:30:48;;;;;;;7.40;1.83;;;;;;;24.18;85.62;100824.41;5054311;28;20410;-49
2022/07/25 08:33:17;;;;;;;6.28;2.13;;;;;;;24.20;86.48;100822.28;5056218;28;20362;-51
2022/07/25 08:35:50;;;;;;;7.57;1.90;;;;;;;24.38;86.32;100828.50;5056412;28;20029;-50
2022/07/25 08:38:17;;;;;;;10.00;1.95;;;;;;;24.56;85.17;100819.19;5056016;28;20024;-51
2022/07/25 08:40:42;;;;;;;9.20;1.60;;;;;;;24.85;84.89;100819.78;5054658;28;20093;-49
2022/07/25 08:43:11;;;;;;;4.93;1.60;;;;;;;24.94;82.56;100818.22;5055964;28;20036;-47
2022/07/25 08:45:44;;;;;;;5.80;1.70;;;;;;;25.12;82.07;100827.97;5054379;28;20023;-48
2022/07/25 08:48:09;;;;;;;10.55;1.70;;;;;;;25.15;79.67;100832.09;5056233;28;20040;-51
2022/07/25 08:50:35;;;;;;;6.18;1.50;;;;;;;25.21;78.05;100835.72;5055047;28;20043;-51
2022/07/25 08:53:01;;;;;;;5.13;1.42;;;;;;;24.88;78.41;100835.66;5051117;28;20023;-50
2022/07/25 08:55:27;;;;;;;7.00;2.05;;;;;;;24.71;80.00;100837.63;5055852;28;20028;-51
2022/07/25 08:57:53;;;;;;;4.60;1.35;;;;;;;24.54;80.15;100835.84;5054105;28;20050;-50
2022/07/25 09:00:25;;;;;;;5.43;1.45;;;;;;;24.72;81.02;100837.38;5053646;28;20128;-51
2022/07/25 09:02:56;;;;;;;8.27;1.50;;;;;;;24.91;79.33;100837.84;5056649;28;20032;-48
2022/07/25 09:05:23;;;;;;;7.40;1.90;;;;;;;25.13;79.28;100847.91;5055483;28;20024;-47
2022/07/25 09:07:50;;;;;;;7.47;1.52;;;;;;;25.36;78.06;100845.97;5055752;28;20031;-51
2022/07/25 09:10:26;;;;;;;8.68;1.58;;;;;;;25.44;77.44;100838.13;5055586;28;20021;-52
2022/07/25 09:12:54;;;;;;;7.97;1.95;;;;;;;25.55;77.69;100847.22;5044331;28;20024;-51
2022/07/25 09:15:35;;;;;;;9.45;2.25;;;;;;;25.65;77.20;100846.50;5051830;28;20649;-50
2022/07/25 09:18:02;;;;;;;;;;;;;;;25.82;76.98;100854.56;5044376;28;20027;-50
2022/07/25 09:20:42;;;;;;;10.13;1.80;;;;;;;25.53;75.44;100848.56;5055689;28;20007;-50
2022/07/25 09:23:08;;;;;;;8.20;1.97;;;;;;;25.48;76.49;100863.03;5041071;28;20020;-47
2022/07/25 09:25:34;;;;;;;6.40;1.65;;;;;;;25.22;75.75;100854.59;5055332;28;20024;-51
2022/07/25 09:28:16;;;;;;;9.80;1.90;;;;;;;25.19;75.06;100854.28;5056325;28;20095;-52
2022/07/25 09:30:56;;;;;;;9.82;1.90;;;;;;;25.01;74.95;100860.94;5053542;28;20525;-51
2022/07/25 09:33:23;;;;;;;5.68;2.00;;;;;;;24.64;74.43;100853.41;5042947;28;20538;-48
2022/07/25 09:35:49;;;;;;;7.38;2.00;;;;;;;24.78;76.11;100851.94;5055735;28;20541;-50
2022/07/25 09:38:15;;;;;;;8.40;2.10;;;;;;;25.00;76.80;100867.47;5054645;28;20064;-51
2022/07/25 09:40:53;;;;;;;9.00;2.22;;;;;;;25.03;77.23;100862.31;5047104;28;20039;-52
2022/07/25 09:43:18;;;;;;;9.57;2.40;;;;;;;25.21;75.09;100879.44;5054250;28;20040;-52
2022/07/25 09:45:50;;;;;;;16.58;2.67;;;;;;;25.33;74.76;100874.66;5054005;28;20531;-51
2022/07/25 09:48:19;;;;;;;14.80;2.80;;;;;;;25.50;73.87;100874.53;5054978;28;20020;-51
2022/07/25 09:50:45;;;;;;;7.78;2.63;;;;;;;25.62;73.00;100872.44;5055753;28;20020;-50
2022/07/25 09:53:10;;;;;;;8.27;2.38;;;;;;;25.66;70.50;100876.31;5054472;28;20548;-52
2022/07/25 09:55:36;;;;;;;10.15;2.53;;;;;;;25.37;70.33;100880.44;5055319;28;20025;-51
2022/07/25 09:58:01;;;;;;;6.70;2.20;;;;;;;25.65;73.00;100876.59;5054311;28;20621;-52
2022/07/25 10:00:28;;;;;;;8.63;2.83;;;;;;;25.87;73.59;100877.28;5052666;28;20032;-52
2022/07/25 10:02:53;;;;;;;11.05;2.55;;;;;;;26.20;72.62;100877.25;5055174;28;20477;-52
2022/07/25 10:05:22;;;;;;;7.43;2.42;;;;;;;26.47;67.87;100882.59;5054255;28;20555;-52
2022/07/25 10:07:51;;;;;;;8.65;2.20;;;;;;;26.47;64.35;100885.34;5054795;28;20020;-52
2022/07/25 10:10:40;;;;;;;9.82;2.25;;;;;;;26.89;66.27;100883.63;5055171;28;20031;-52
2022/07/25 10:13:13;;;;;;;8.50;2.42;;;;;;;26.95;64.41;100888.84;5038202;28;20036;-50
2022/07/25 10:15:41;;;;;;;9.90;2.03;;;;;;;26.51;63.12;100893.84;5053590;28;20260;-51
2022/07/25 10:18:07;;;;;;;6.35;2.00;;;;;;;26.27;63.14;100888.78;5055701;28;20499;-52
2022/07/25 10:20:33;;;;;;;6.03;1.80;;;;;;;26.33;62.96;100893.22;5049317;28;20024;-50
2022/07/25 10:22:59;;;;;;;7.57;2.00;;;;;;;26.19;62.83;100881.91;5053193;28;20373;-50
2022/07/25 10:25:25;;;;;;;5.20;2.00;;;;;;;26.32;61.18;100874.31;5054483;28;20028;-51
2022/07/25 10:27:59;;;;;;;8.52;2.22;;;;;;;26.39;62.23;100878.47;5054944;28;20178;-51
2022/07/25 10:30:27;;;;;;;7.72;2.42;;;;;;;26.57;60.72;100884.56;5052405;28;20024;-51
2022/07/25 10:33:00;;;;;;;8.93;2.17;;;;;;;26.84;60.23;100887.16;5055055;28;20105;-50
2022/07/25 10:35:27;;;;;;;8.43;2.30;;;;;;;26.97;60.44;100881.16;5052480;28;20107;-52
2022/07/25 10:37:54;;;;;;;8.05;2.00;;;;;;;27.11;59.45;100897.09;5053821;28;20032;-50
2022/07/25 10:40:26;;;;;;;6.07;2.25;;;;;;;27.09;61.39;100893.81;5054485;28;20480;-53
2022/07/25 10:42:59;;;;;;;7.65;2.22;;;;;;;26.89;61.15;100894.59;5054809;28;20039;-53
2022/07/25 10:45:26;;;;;;;7.15;2.30;;;;;;;27.10;62.13;100893.50;5051253;28;20050;-53
2022/07/25 10:47:54;;;;;;;8.40;2.03;;;;;;;27.05;62.47;100907.22;5052632;28;20025;-52
2022/07/25 10:50:21;;;;;;;7.70;2.67;;;;;;;27.11;63.59;100897.91;5054083;28;20016;-52
2022/07/25 10:52:58;;;;;;;8.27;2.42;;;;;;;27.35;63.43;100900.19;5054213;28;20567;-53
2022/07/25 10:55:26;;;;;;;5.80;2.25;;;;;;;27.54;62.03;100906.78;5052349;28;20024;-53
2022/07/25 10:58:05;;;;;;;9.18;3.05;;;;;;;27.56;61.05;100916.66;5054559;28;20135;-51
2022/07/25 11:00:31;;;;;;;7.85;2.45;;;;;;;26.98;60.62;100926.66;5053393;28;20035;-53
2022/07/25 11:02:57;;;;;;;9.32;2.60;;;;;;;27.05;61.22;100931.88;5054443;28;20039;-53
2022/07/25 11:05:22;;;;;;;11.90;3.08;;;;;;;26.97;61.01;100927.78;5054153;28;20071;-52
2022/07/25 11:07:52;;;;;;;11.90;2.97;;;;;;;26.64;61.66;100923.50;5053838;28;20538;-52
2022/07/25 11:10:25;;;;;;;8.82;2.80;;;;;;;26.45;63.83;100927.78;5054059;28;20160;-52
2022/07/25 11:12:51;;;;;;;7.47;2.80;;;;;;;26.21;65.51;100929.00;5054796;28;20017;-52
2022/07/25 11:15:21;;;;;;;10.15;2.80;;;;;;;26.20;65.98;100929.28;5052578;28;20040;-53